Wetterdaten: Woche 06.04.15 - 12.04.15 (KW15)
Datum Zeit Temp. A. Feuchte A. Luftdruck Regen Wind Richtung Sonnenschein ET UV Solar Taupunkt Windchill Windben
06.04.2015 00:00 -0,6 C 88 % 1024,7 hPa 0,0 l/m 0,0 km/h (0 Bft) N 0,00 h 0,000 mm 0,0 UV-I 0 W/m -2,4 C -0,6 C 0,1 km/h (0 Bft)
06.04.2015 01:00 -1,4 C 90 % 1024,7 hPa 0,0 l/m 0,0 km/h (0 Bft) N 0,00 h 0,000 mm 0,0 UV-I 0 W/m -2,8 C -1,4 C 0,0 km/h (0 Bft)
06.04.2015 02:00 -2,0 C 91 % 1024,7 hPa 0,0 l/m 0,0 km/h (0 Bft) N 0,00 h 0,000 mm 0,0 UV-I 0 W/m -3,2 C -2,0 C 0,0 km/h (0 Bft)
06.04.2015 03:00 -2,1 C 92 % 1024,4 hPa 0,0 l/m 0,0 km/h (0 Bft) N 0,00 h 0,000 mm 0,0 UV-I 0 W/m -3,2 C -2,1 C 0,1 km/h (0 Bft)
06.04.2015 04:00 -2,2 C 93 % 1024,2 hPa 0,0 l/m 0,0 km/h (0 Bft) N 0,00 h 0,000 mm 0,0 UV-I 0 W/m -3,3 C -2,2 C 0,1 km/h (0 Bft)
06.04.2015 05:00 -2,0 C 93 % 1024,0 hPa 0,0 l/m 0,0 km/h (0 Bft) N 0,00 h 0,000 mm 0,0 UV-I 0 W/m -2,9 C -2,0 C 0,1 km/h (0 Bft)
06.04.2015 06:00 -1,9 C 93 % 1024,1 hPa 0,0 l/m 0,0 km/h (0 Bft) N 0,00 h 0,000 mm 0,0 UV-I 6 W/m -2,9 C -1,9 C 0,1 km/h (0 Bft)
06.04.2015 07:00 -1,8 C 94 % 1024,5 hPa 0,0 l/m 0,0 km/h (0 Bft) N 0,00 h 0,000 mm 0,0 UV-I 18 W/m -2,7 C -1,8 C 0,2 km/h (0 Bft)
06.04.2015 08:00 -0,4 C 91 % 1025,0 hPa 0,0 l/m 0,9 km/h (0 Bft) N 0,73 h 0,000 mm 0,0 UV-I 63 W/m -1,7 C -0,4 C 1,9 km/h (1 Bft)
06.04.2015 09:00 0,5 C 90 % 1025,2 hPa 0,0 l/m 0,4 km/h (0 Bft) N 0,97 h 0,025 mm 0,9 UV-I 197 W/m -0,9 C 0,5 C 1,0 km/h (0 Bft)
06.04.2015 10:00 3,7 C 77 % 1025,2 hPa 0,0 l/m 4,0 km/h (1 Bft) N 1,00 h 0,076 mm 2,0 UV-I 587 W/m 0,1 C 3,2 C 7,5 km/h (2 Bft)
06.04.2015 11:00 4,8 C 62 % 1025,4 hPa 0,0 l/m 11,3 km/h (2 Bft) N 1,00 h 0,229 mm 2,1 UV-I 370 W/m -1,8 C 1,2 C 17,3 km/h (3 Bft)
06.04.2015 12:00 5,5 C 55 % 1025,4 hPa 0,0 l/m 11,0 km/h (2 Bft) N 1,00 h 0,178 mm 2,3 UV-I 389 W/m -2,9 C 2,1 C 18,1 km/h (3 Bft)
06.04.2015 13:00 6,9 C 49 % 1025,6 hPa 0,0 l/m 12,7 km/h (3 Bft) N 1,00 h 0,203 mm 2,7 UV-I 547 W/m -3,1 C 2,8 C 19,6 km/h (3 Bft)
06.04.2015 14:00 4,9 C 66 % 1026,3 hPa 0,0 l/m 17,7 km/h (3 Bft) N 1,00 h 0,279 mm 1,8 UV-I 258 W/m -1,1 C -2,1 C 26,6 km/h (4 Bft)
06.04.2015 15:00 5,1 C 67 % 1026,7 hPa 0,0 l/m 11,0 km/h (2 Bft) N 1,00 h 0,152 mm 2,0 UV-I 361 W/m -0,5 C 1,7 C 17,3 km/h (3 Bft)
06.04.2015 16:00 5,2 C 64 % 1027,0 hPa 0,0 l/m 11,9 km/h (2 Bft) N-NO 0,98 h 0,178 mm 1,1 UV-I 240 W/m -1,1 C 1,2 C 19,7 km/h (3 Bft)
06.04.2015 17:00 3,9 C 74 % 1027,8 hPa 0,2 l/m 10,4 km/h (2 Bft) N-NO 0,70 h 0,127 mm 0,8 UV-I 108 W/m -0,4 C 0,8 C 16,4 km/h (3 Bft)
06.04.2015 18:00 2,6 C 86 % 1028,7 hPa 0,0 l/m 6,9 km/h (2 Bft) N 0,58 h 0,076 mm 0,5 UV-I 107 W/m 0,4 C 1,0 C 11,7 km/h (2 Bft)
06.04.2015 19:00 2,0 C 87 % 1029,6 hPa 0,0 l/m 4,7 km/h (1 Bft) N 0,00 h 0,051 mm 0,0 UV-I 12 W/m 0,1 C 1,5 C 8,4 km/h (2 Bft)
06.04.2015 20:00 1,8 C 87 % 1030,5 hPa 0,0 l/m 1,5 km/h (1 Bft) N 0,00 h 0,000 mm 0,0 UV-I 0 W/m -0,2 C 1,8 C 3,0 km/h (1 Bft)
06.04.2015 21:00 1,3 C 90 % 1031,5 hPa 0,0 l/m 0,2 km/h (0 Bft) N 0,00 h 0,000 mm 0,0 UV-I 0 W/m -0,2 C 1,3 C 0,7 km/h (0 Bft)
06.04.2015 22:00 1,0 C 91 % 1032,4 hPa 0,0 l/m 0,3 km/h (0 Bft) N 0,00 h 0,000 mm 0,0 UV-I 0 W/m -0,3 C 1,0 C 0,9 km/h (0 Bft)
06.04.2015 23:00 0,5 C 92 % 1033,1 hPa 0,0 l/m 0,2 km/h (0 Bft) N 0,00 h 0,000 mm 0,0 UV-I 0 W/m -0,7 C 0,5 C 0,8 km/h (0 Bft)
07.04.2015 00:00 -0,3 C 93 % 1033,7 hPa 0,0 l/m 0,2 km/h (0 Bft) N 0,00 h 0,000 mm 0,0 UV-I 0 W/m -1,3 C -0,3 C 0,7 km/h (0 Bft)
07.04.2015 01:00 -0,6 C 94 % 1034,0 hPa 0,0 l/m 0,4 km/h (0 Bft) N 0,00 h 0,000 mm 0,0 UV-I 0 W/m -1,5 C -0,6 C 1,1 km/h (1 Bft)
07.04.2015 02:00 -1,2 C 94 % 1034,3 hPa 0,0 l/m 0,4 km/h (0 Bft) N 0,00 h 0,000 mm 0,0 UV-I 0 W/m -2,0 C -1,2 C 1,5 km/h (1 Bft)
07.04.2015 03:00 -1,9 C 94 % 1034,4 hPa 0,0 l/m 0,1 km/h (0 Bft) N 0,00 h 0,000 mm 0,0 UV-I 0 W/m -2,7 C -1,9 C 0,4 km/h (0 Bft)
07.04.2015 04:00 -2,5 C 95 % 1034,9 hPa 0,0 l/m 0,1 km/h (0 Bft) N 0,00 h 0,000 mm 0,0 UV-I 0 W/m -3,2 C -2,5 C 0,3 km/h (0 Bft)
07.04.2015 05:00 -3,0 C 95 % 1035,2 hPa 0,0 l/m 0,1 km/h (0 Bft) N 0,00 h 0,000 mm 0,0 UV-I 0 W/m -3,7 C -3,0 C 0,2 km/h (0 Bft)
07.04.2015 06:00 -3,3 C 95 % 1035,9 hPa 0,0 l/m 0,0 km/h (0 Bft) N 0,00 h 0,000 mm 0,0 UV-I 9 W/m -4,1 C -3,3 C 0,0 km/h (0 Bft)
07.04.2015 07:00 -3,2 C 95 % 1036,5 hPa 0,0 l/m 0,1 km/h (0 Bft) N 0,28 h 0,000 mm 0,0 UV-I 45 W/m -3,9 C -3,2 C 0,3 km/h (0 Bft)
07.04.2015 08:00 -0,7 C 93 % 1036,9 hPa 0,0 l/m 0,0 km/h (0 Bft) N 1,00 h 0,025 mm 0,7 UV-I 230 W/m -1,7 C -0,7 C 0,1 km/h (0 Bft)
07.04.2015 09:00 2,4 C 83 % 1037,2 hPa 0,0 l/m 0,2 km/h (0 Bft) N 1,00 h 0,076 mm 1,4 UV-I 447 W/m -0,2 C 2,4 C 1,0 km/h (0 Bft)
07.04.2015 10:00 5,2 C 69 % 1037,0 hPa 0,0 l/m 2,5 km/h (1 Bft) W-SW 1,00 h 0,152 mm 2,5 UV-I 619 W/m -0,2 C 5,0 C 5,1 km/h (1 Bft)
07.04.2015 11:00 6,9 C 56 % 1036,6 hPa 0,0 l/m 4,3 km/h (1 Bft) NW 1,00 h 0,254 mm 3,2 UV-I 683 W/m -1,4 C 6,5 C 8,0 km/h (2 Bft)
07.04.2015 12:00 8,1 C 47 % 1036,0 hPa 0,0 l/m 5,7 km/h (2 Bft) SW 1,00 h 0,305 mm 3,8 UV-I 739 W/m -2,5 C 7,5 C 10,0 km/h (2 Bft)
07.04.2015 13:00 9,0 C 47 % 1035,5 hPa 0,0 l/m 7,5 km/h (2 Bft) W 1,00 h 0,356 mm 3,8 UV-I 719 W/m -1,7 C 7,8 C 12,3 km/h (2 Bft)
07.04.2015 14:00 9,8 C 46 % 1034,9 hPa 0,0 l/m 8,9 km/h (2 Bft) W-SW 1,00 h 0,356 mm 3,4 UV-I 651 W/m -1,4 C 8,0 C 14,2 km/h (3 Bft)
07.04.2015 15:00 10,9 C 42 % 1034,1 hPa 0,0 l/m 8,4 km/h (2 Bft) NW 1,00 h 0,356 mm 2,8 UV-I 639 W/m -1,5 C 9,3 C 12,9 km/h (3 Bft)
07.04.2015 16:00 12,0 C 37 % 1033,3 hPa 0,0 l/m 9,8 km/h (2 Bft) NW 1,00 h 0,356 mm 1,9 UV-I 523 W/m -2,1 C 9,9 C 15,1 km/h (3 Bft)
07.04.2015 17:00 11,1 C 39 % 1033,0 hPa 0,0 l/m 9,9 km/h (2 Bft) W-NW 1,00 h 0,330 mm 1,0 UV-I 278 W/m -2,4 C 8,9 C 14,9 km/h (3 Bft)
07.04.2015 18:00 10,1 C 43 % 1032,5 hPa 0,0 l/m 9,7 km/h (2 Bft) W-NW 0,63 h 0,203 mm 0,5 UV-I 121 W/m -1,8 C 7,9 C 14,6 km/h (3 Bft)
07.04.2015 19:00 8,6 C 48 % 1032,3 hPa 0,0 l/m 7,5 km/h (2 Bft) W 0,00 h 0,127 mm 0,0 UV-I 15 W/m -1,7 C 7,4 C 11,4 km/h (2 Bft)
07.04.2015 20:00 7,0 C 55 % 1032,4 hPa 0,0 l/m 1,9 km/h (1 Bft) W 0,00 h 0,051 mm 0,0 UV-I 0 W/m -1,4 C 7,0 C 4,5 km/h (1 Bft)
07.04.2015 21:00 5,4 C 63 % 1032,4 hPa 0,0 l/m 1,5 km/h (1 Bft) W 0,00 h 0,025 mm 0,0 UV-I 0 W/m -1,1 C 5,4 C 3,5 km/h (1 Bft)
07.04.2015 22:00 3,8 C 70 % 1032,5 hPa 0,0 l/m 2,3 km/h (1 Bft) N 0,00 h 0,025 mm 0,0 UV-I 0 W/m -1,1 C 3,8 C 4,2 km/h (1 Bft)
07.04.2015 23:00 2,1 C 79 % 1032,5 hPa 0,0 l/m 0,1 km/h (0 Bft) N 0,00 h 0,025 mm 0,0 UV-I 0 W/m -1,2 C 2,1 C 0,3 km/h (0 Bft)
08.04.2015 00:00 1,0 C 85 % 1032,4 hPa 0,0 l/m 0,1 km/h (0 Bft) N 0,00 h 0,000 mm 0,0 UV-I 0 W/m -1,3 C 1,0 C 0,3 km/h (0 Bft)
08.04.2015 01:00 0,4 C 87 % 1032,4 hPa 0,0 l/m 0,0 km/h (0 Bft) N 0,00 h 0,000 mm 0,0 UV-I 0 W/m -1,5 C 0,4 C 0,1 km/h (0 Bft)
08.04.2015 02:00 -0,2 C 89 % 1032,2 hPa 0,0 l/m 0,0 km/h (0 Bft) N 0,00 h 0,000 mm 0,0 UV-I 0 W/m -1,7 C -0,2 C 0,0 km/h (0 Bft)
08.04.2015 03:00 -0,4 C 90 % 1031,9 hPa 0,0 l/m 0,0 km/h (0 Bft) N 0,00 h 0,000 mm 0,0 UV-I 0 W/m -1,8 C -0,4 C 0,1 km/h (0 Bft)
08.04.2015 04:00 -0,4 C 91 % 1031,5 hPa 0,0 l/m 0,0 km/h (0 Bft) N 0,00 h 0,000 mm 0,0 UV-I 0 W/m -1,6 C -0,4 C 0,1 km/h (0 Bft)
08.04.2015 05:00 0,4 C 90 % 1031,5 hPa 0,0 l/m 0,0 km/h (0 Bft) N 0,00 h 0,000 mm 0,0 UV-I 0 W/m -0,9 C 0,4 C 0,2 km/h (0 Bft)
08.04.2015 06:00 1,3 C 88 % 1031,4 hPa 0,0 l/m 0,0 km/h (0 Bft) N 0,00 h 0,000 mm 0,0 UV-I 0 W/m -0,5 C 1,3 C 0,2 km/h (0 Bft)
08.04.2015 07:00 2,0 C 86 % 1031,6 hPa 0,0 l/m 0,0 km/h (0 Bft) N 0,00 h 0,000 mm 0,0 UV-I 20 W/m -0,0 C 2,0 C 0,0 km/h (0 Bft)
08.04.2015 08:00 2,9 C 84 % 1031,6 hPa 0,0 l/m 0,0 km/h (0 Bft) N 0,92 h 0,000 mm 0,7 UV-I 113 W/m 0,5 C 2,9 C 0,3 km/h (0 Bft)
08.04.2015 09:00 4,5 C 80 % 1031,6 hPa 0,0 l/m 1,8 km/h (1 Bft) S 1,00 h 0,051 mm 0,8 UV-I 128 W/m 1,3 C 4,5 C 4,4 km/h (1 Bft)
08.04.2015 10:00 5,9 C 78 % 1031,7 hPa 0,0 l/m 3,8 km/h (1 Bft) W 1,00 h 0,051 mm 0,7 UV-I 96 W/m 2,3 C 5,4 C 6,7 km/h (2 Bft)
08.04.2015 11:00 6,8 C 77 % 1031,7 hPa 0,0 l/m 9,2 km/h (2 Bft) W-NW 1,00 h 0,051 mm 1,0 UV-I 126 W/m 3,1 C 4,7 C 14,3 km/h (3 Bft)
08.04.2015 12:00 6,8 C 78 % 1031,9 hPa 0,0 l/m 10,2 km/h (2 Bft) NW 1,00 h 0,076 mm 1,5 UV-I 182 W/m 3,2 C 4,0 C 15,9 km/h (3 Bft)
08.04.2015 13:00 8,5 C 70 % 1031,9 hPa 0,0 l/m 11,5 km/h (2 Bft) NW 1,00 h 0,102 mm 3,0 UV-I 440 W/m 3,3 C 5,2 C 16,5 km/h (3 Bft)
08.04.2015 14:00 8,7 C 70 % 1032,0 hPa 0,0 l/m 8,6 km/h (2 Bft) W-NW 1,00 h 0,229 mm 1,7 UV-I 218 W/m 3,5 C 6,9 C 13,0 km/h (3 Bft)
08.04.2015 15:00 9,4 C 70 % 1031,9 hPa 0,0 l/m 6,7 km/h (2 Bft) NW 1,00 h 0,127 mm 1,7 UV-I 257 W/m 4,1 C 8,4 C 10,7 km/h (2 Bft)
08.04.2015 16:00 10,0 C 68 % 1031,6 hPa 0,0 l/m 6,3 km/h (2 Bft) N 1,00 h 0,152 mm 1,3 UV-I 253 W/m 4,5 C 9,4 C 10,2 km/h (2 Bft)
08.04.2015 17:00 10,5 C 67 % 1031,4 hPa 0,0 l/m 5,9 km/h (2 Bft) N 1,00 h 0,127 mm 0,8 UV-I 203 W/m 4,7 C 10,0 C 10,1 km/h (2 Bft)
08.04.2015 18:00 10,4 C 68 % 1031,2 hPa 0,0 l/m 5,1 km/h (1 Bft) N-NO 0,63 h 0,127 mm 0,6 UV-I 102 W/m 4,7 C 10,1 C 8,5 km/h (2 Bft)
08.04.2015 19:00 9,1 C 73 % 1031,3 hPa 0,0 l/m 0,3 km/h (0 Bft) N 0,00 h 0,076 mm 0,0 UV-I 21 W/m 4,4 C 9,1 C 1,3 km/h (1 Bft)
08.04.2015 20:00 7,7 C 79 % 1031,7 hPa 0,0 l/m 0,2 km/h (0 Bft) O-SO 0,00 h 0,000 mm 0,0 UV-I 0 W/m 4,3 C 7,7 C 1,4 km/h (1 Bft)
08.04.2015 21:00 7,1 C 83 % 1032,2 hPa 0,0 l/m 0,0 km/h (0 Bft) N 0,00 h 0,000 mm 0,0 UV-I 0 W/m 4,3 C 7,1 C 0,3 km/h (0 Bft)
08.04.2015 22:00 6,6 C 86 % 1032,4 hPa 0,0 l/m 0,1 km/h (0 Bft) N 0,00 h 0,000 mm 0,0 UV-I 0 W/m 4,4 C 6,6 C 0,3 km/h (0 Bft)
08.04.2015 23:00 6,1 C 87 % 1032,5 hPa 0,0 l/m 0,1 km/h (0 Bft) N 0,00 h 0,000 mm 0,0 UV-I 0 W/m 4,1 C 6,1 C 0,6 km/h (0 Bft)
09.04.2015 00:00 5,7 C 89 % 1032,5 hPa 0,0 l/m 0,0 km/h (0 Bft) N 0,00 h 0,000 mm 0,0 UV-I 0 W/m 4,1 C 5,7 C 0,3 km/h (0 Bft)
09.04.2015 01:00 5,5 C 89 % 1032,2 hPa 0,0 l/m 0,2 km/h (0 Bft) N 0,00 h 0,000 mm 0,0 UV-I 0 W/m 3,8 C 5,5 C 0,6 km/h (0 Bft)
09.04.2015 02:00 5,4 C 90 % 1032,0 hPa 0,0 l/m 0,1 km/h (0 Bft) N 0,00 h 0,000 mm 0,0 UV-I 0 W/m 3,8 C 5,4 C 0,5 km/h (0 Bft)
09.04.2015 03:00 5,8 C 87 % 1031,8 hPa 0,0 l/m 0,6 km/h (0 Bft) O-NO 0,00 h 0,000 mm 0,0 UV-I 0 W/m 3,9 C 5,8 C 1,8 km/h (1 Bft)
09.04.2015 04:00 5,8 C 88 % 1031,5 hPa 0,0 l/m 0,4 km/h (0 Bft) N 0,00 h 0,000 mm 0,0 UV-I 0 W/m 3,9 C 5,8 C 1,7 km/h (1 Bft)
09.04.2015 05:00 5,6 C 89 % 1031,4 hPa 0,0 l/m 1,3 km/h (1 Bft) O-SO 0,00 h 0,000 mm 0,0 UV-I 0 W/m 3,8 C 5,6 C 3,6 km/h (1 Bft)
09.04.2015 06:00 5,3 C 90 % 1031,3 hPa 0,0 l/m 3,0 km/h (1 Bft) O-SO 0,00 h 0,000 mm 0,0 UV-I 0 W/m 3,8 C 5,2 C 6,2 km/h (2 Bft)
09.04.2015 07:00 5,1 C 89 % 1031,5 hPa 0,0 l/m 2,9 km/h (1 Bft) SO 0,00 h 0,000 mm 0,0 UV-I 13 W/m 3,6 C 5,1 C 6,9 km/h (2 Bft)
09.04.2015 08:00 4,8 C 89 % 1031,6 hPa 0,0 l/m 4,7 km/h (1 Bft) SO 0,27 h 0,000 mm 0,0 UV-I 39 W/m 3,1 C 4,4 C 9,3 km/h (2 Bft)
09.04.2015 09:00 4,8 C 88 % 1031,4 hPa 0,0 l/m 3,9 km/h (1 Bft) O-SO 1,00 h 0,025 mm 0,6 UV-I 79 W/m 3,0 C 4,6 C 8,1 km/h (2 Bft)
09.04.2015 10:00 5,6 C 86 % 1031,0 hPa 0,0 l/m 4,7 km/h (1 Bft) SO 1,00 h 0,025 mm 0,9 UV-I 114 W/m 3,5 C 5,2 C 8,5 km/h (2 Bft)
09.04.2015 11:00 6,3 C 85 % 1030,5 hPa 0,0 l/m 4,8 km/h (1 Bft) SO 1,00 h 0,051 mm 1,3 UV-I 165 W/m 3,9 C 6,1 C 9,1 km/h (2 Bft)
09.04.2015 12:00 7,3 C 82 % 1029,8 hPa 0,0 l/m 4,6 km/h (1 Bft) O-SO 1,00 h 0,076 mm 2,0 UV-I 262 W/m 4,4 C 7,0 C 8,8 km/h (2 Bft)
09.04.2015 13:00 9,3 C 77 % 1029,1 hPa 0,0 l/m 3,7 km/h (1 Bft) O-NO 1,00 h 0,127 mm 3,0 UV-I 465 W/m 5,4 C 9,2 C 7,7 km/h (2 Bft)
09.04.2015 14:00 11,4 C 70 % 1028,5 hPa 0,0 l/m 4,5 km/h (1 Bft) N 1,00 h 0,229 mm 3,5 UV-I 633 W/m 6,2 C 11,2 C 8,7 km/h (2 Bft)
09.04.2015 15:00 12,2 C 67 % 1027,9 hPa 0,0 l/m 1,3 km/h (1 Bft) W 1,00 h 0,305 mm 2,7 UV-I 529 W/m 6,3 C 12,2 C 3,7 km/h (1 Bft)
09.04.2015 16:00 13,7 C 63 % 1027,1 hPa 0,0 l/m 2,9 km/h (1 Bft) N 1,00 h 0,254 mm 2,0 UV-I 479 W/m 6,8 C 13,6 C 5,3 km/h (1 Bft)
09.04.2015 17:00 13,1 C 64 % 1026,5 hPa 0,0 l/m 1,6 km/h (1 Bft) SO 1,00 h 0,254 mm 1,0 UV-I 295 W/m 6,6 C 13,1 C 3,9 km/h (1 Bft)
09.04.2015 18:00 12,9 C 65 % 1026,0 hPa 0,0 l/m 0,9 km/h (0 Bft) O 0,75 h 0,152 mm 0,6 UV-I 102 W/m 6,6 C 12,9 C 2,3 km/h (1 Bft)
09.04.2015 19:00 11,8 C 70 % 1026,0 hPa 0,0 l/m 0,6 km/h (0 Bft) O-SO 0,00 h 0,051 mm 0,0 UV-I 20 W/m 6,5 C 11,8 C 2,1 km/h (1 Bft)
09.04.2015 20:00 9,5 C 80 % 1026,1 hPa 0,0 l/m 0,6 km/h (0 Bft) O 0,00 h 0,025 mm 0,0 UV-I 0 W/m 6,3 C 9,5 C 1,9 km/h (1 Bft)
09.04.2015 21:00 7,7 C 86 % 1026,2 hPa 0,0 l/m 0,4 km/h (0 Bft) O-NO 0,00 h 0,000 mm 0,0 UV-I 0 W/m 5,5 C 7,7 C 1,7 km/h (1 Bft)
09.04.2015 22:00 6,2 C 89 % 1026,1 hPa 0,0 l/m 0,0 km/h (0 Bft) N 0,00 h 0,000 mm 0,0 UV-I 0 W/m 4,6 C 6,2 C 0,1 km/h (0 Bft)
09.04.2015 23:00 5,4 C 89 % 1026,0 hPa 0,0 l/m 0,0 km/h (0 Bft) N 0,00 h 0,000 mm 0,0 UV-I 0 W/m 3,6 C 5,4 C 0,0 km/h (0 Bft)
10.04.2015 00:00 4,3 C 90 % 1025,9 hPa 0,0 l/m 0,0 km/h (0 Bft) N 0,00 h 0,000 mm 0,0 UV-I 0 W/m 2,8 C 4,3 C 0,0 km/h (0 Bft)
10.04.2015 01:00 3,3 C 91 % 1025,8 hPa 0,0 l/m 0,0 km/h (0 Bft) N 0,00 h 0,000 mm 0,0 UV-I 0 W/m 2,0 C 3,3 C 0,0 km/h (0 Bft)
10.04.2015 02:00 2,5 C 92 % 1025,7 hPa 0,0 l/m 0,0 km/h (0 Bft) N 0,00 h 0,000 mm 0,0 UV-I 0 W/m 1,3 C 2,5 C 0,0 km/h (0 Bft)
10.04.2015 03:00 1,8 C 93 % 1025,3 hPa 0,0 l/m 0,0 km/h (0 Bft) N 0,00 h 0,000 mm 0,0 UV-I 0 W/m 0,7 C 1,8 C 0,0 km/h (0 Bft)
10.04.2015 04:00 1,1 C 93 % 1025,2 hPa 0,0 l/m 0,0 km/h (0 Bft) N 0,00 h 0,000 mm 0,0 UV-I 0 W/m 0,1 C 1,1 C 0,0 km/h (0 Bft)
10.04.2015 05:00 0,6 C 93 % 1025,1 hPa 0,0 l/m 0,0 km/h (0 Bft) N 0,00 h 0,000 mm 0,0 UV-I 0 W/m -0,4 C 0,6 C 0,0 km/h (0 Bft)
10.04.2015 06:00 -0,0 C 94 % 1025,2 hPa 0,0 l/m 0,0 km/h (0 Bft) N 0,00 h 0,000 mm 0,0 UV-I 12 W/m -0,9 C -0,0 C 0,0 km/h (0 Bft)
10.04.2015 07:00 0,1 C 95 % 1025,4 hPa 0,0 l/m 0,0 km/h (0 Bft) N 0,37 h 0,000 mm 0,5 UV-I 51 W/m -0,7 C 0,1 C 0,0 km/h (0 Bft)
10.04.2015 08:00 2,5 C 94 % 1025,6 hPa 0,0 l/m 0,0 km/h (0 Bft) N 1,00 h 0,025 mm 0,8 UV-I 220 W/m 1,5 C 2,5 C 0,1 km/h (0 Bft)
10.04.2015 09:00 7,1 C 84 % 1025,3 hPa 0,0 l/m 0,1 km/h (0 Bft) N 1,00 h 0,076 mm 1,6 UV-I 427 W/m 4,6 C 7,1 C 0,6 km/h (0 Bft)
10.04.2015 10:00 11,4 C 75 % 1025,0 hPa 0,0 l/m 0,2 km/h (0 Bft) N 1,00 h 0,178 mm 2,8 UV-I 587 W/m 7,1 C 11,4 C 1,4 km/h (1 Bft)
10.04.2015 11:00 14,5 C 63 % 1024,5 hPa 0,0 l/m 1,8 km/h (1 Bft) S 1,00 h 0,279 mm 4,0 UV-I 706 W/m 7,5 C 14,5 C 4,5 km/h (1 Bft)
10.04.2015 12:00 16,7 C 51 % 1023,9 hPa 0,0 l/m 1,8 km/h (1 Bft) O-NO 1,00 h 0,381 mm 4,8 UV-I 773 W/m 6,6 C 16,7 C 4,2 km/h (1 Bft)
10.04.2015 13:00 17,4 C 43 % 1023,4 hPa 0,0 l/m 3,0 km/h (1 Bft) S 1,00 h 0,432 mm 4,8 UV-I 781 W/m 4,8 C 17,4 C 6,0 km/h (2 Bft)
10.04.2015 14:00 18,3 C 41 % 1022,8 hPa 0,0 l/m 3,6 km/h (1 Bft) SO 1,00 h 0,457 mm 4,2 UV-I 725 W/m 4,7 C 18,2 C 6,5 km/h (2 Bft)
10.04.2015 15:00 18,8 C 40 % 1022,0 hPa 0,0 l/m 3,4 km/h (1 Bft) S-SW 1,00 h 0,432 mm 3,2 UV-I 627 W/m 4,9 C 18,7 C 6,4 km/h (2 Bft)
10.04.2015 16:00 18,8 C 40 % 1021,4 hPa 0,0 l/m 3,8 km/h (1 Bft) SO 1,00 h 0,381 mm 2,1 UV-I 499 W/m 5,0 C 18,6 C 6,9 km/h (2 Bft)
10.04.2015 17:00 18,3 C 40 % 1020,9 hPa 0,0 l/m 4,7 km/h (1 Bft) S 1,00 h 0,305 mm 1,1 UV-I 308 W/m 4,5 C 18,1 C 7,7 km/h (2 Bft)
10.04.2015 18:00 17,5 C 40 % 1020,6 hPa 0,0 l/m 2,6 km/h (1 Bft) S-SO 0,95 h 0,203 mm 0,6 UV-I 89 W/m 3,8 C 17,5 C 4,7 km/h (1 Bft)
10.04.2015 19:00 16,1 C 47 % 1020,3 hPa 0,0 l/m 0,6 km/h (0 Bft) N 0,00 h 0,076 mm 0,0 UV-I 23 W/m 4,8 C 16,1 C 1,8 km/h (1 Bft)
10.04.2015 20:00 12,4 C 69 % 1020,5 hPa 0,0 l/m 1,6 km/h (1 Bft) O 0,00 h 0,025 mm 0,0 UV-I 0 W/m 6,7 C 12,4 C 3,3 km/h (1 Bft)
10.04.2015 21:00 10,2 C 76 % 1020,6 hPa 0,0 l/m 0,8 km/h (0 Bft) O 0,00 h 0,000 mm 0,0 UV-I 0 W/m 6,2 C 10,2 C 2,1 km/h (1 Bft)
10.04.2015 22:00 8,3 C 84 % 1020,6 hPa 0,0 l/m 0,0 km/h (0 Bft) N 0,00 h 0,025 mm 0,0 UV-I 0 W/m 5,7 C 8,3 C 0,1 km/h (0 Bft)
10.04.2015 23:00 6,8 C 88 % 1020,4 hPa 0,0 l/m 0,0 km/h (0 Bft) N 0,00 h 0,000 mm 0,0 UV-I 0 W/m 5,0 C 6,8 C 0,0 km/h (0 Bft)
11.04.2015 00:00 5,9 C 90 % 1020,3 hPa 0,0 l/m 0,0 km/h (0 Bft) N 0,00 h 0,000 mm 0,0 UV-I 0 W/m 4,4 C 5,9 C 0,0 km/h (0 Bft)
11.04.2015 01:00 5,1 C 92 % 1020,3 hPa 0,0 l/m 0,0 km/h (0 Bft) N 0,00 h 0,000 mm 0,0 UV-I 0 W/m 3,8 C 5,1 C 0,0 km/h (0 Bft)
11.04.2015 02:00 4,3 C 93 % 1020,1 hPa 0,0 l/m 0,0 km/h (0 Bft) N 0,00 h 0,000 mm 0,0 UV-I 0 W/m 3,3 C 4,3 C 0,2 km/h (0 Bft)
11.04.2015 03:00 3,8 C 94 % 1019,9 hPa 0,0 l/m 0,0 km/h (0 Bft) N 0,00 h 0,000 mm 0,0 UV-I 0 W/m 2,8 C 3,8 C 0,0 km/h (0 Bft)
11.04.2015 04:00 3,4 C 94 % 1020,0 hPa 0,0 l/m 0,0 km/h (0 Bft) N 0,00 h 0,000 mm 0,0 UV-I 0 W/m 2,5 C 3,4 C 0,0 km/h (0 Bft)
11.04.2015 05:00 2,9 C 94 % 1019,9 hPa 0,0 l/m 0,0 km/h (0 Bft) N 0,00 h 0,000 mm 0,0 UV-I 0 W/m 2,1 C 2,9 C 0,0 km/h (0 Bft)
11.04.2015 06:00 2,6 C 94 % 1020,0 hPa 0,0 l/m 0,0 km/h (0 Bft) N 0,00 h 0,000 mm 0,0 UV-I 15 W/m 1,8 C 2,6 C 0,0 km/h (0 Bft)
11.04.2015 07:00 3,3 C 94 % 1020,2 hPa 0,0 l/m 0,0 km/h (0 Bft) N 0,78 h 0,000 mm 0,5 UV-I 89 W/m 2,5 C 3,3 C 0,0 km/h (0 Bft)
11.04.2015 08:00 6,6 C 88 % 1020,4 hPa 0,0 l/m 0,0 km/h (0 Bft) N 1,00 h 0,025 mm 0,7 UV-I 218 W/m 4,8 C 6,6 C 0,0 km/h (0 Bft)
11.04.2015 09:00 9,9 C 79 % 1020,6 hPa 0,0 l/m 0,9 km/h (0 Bft) N 1,00 h 0,102 mm 1,2 UV-I 242 W/m 6,5 C 10,0 C 1,8 km/h (1 Bft)
11.04.2015 10:00 12,5 C 68 % 1021,0 hPa 0,0 l/m 6,5 km/h (2 Bft) S 1,00 h 0,127 mm 1,7 UV-I 307 W/m 6,7 C 11,8 C 10,8 km/h (2 Bft)
11.04.2015 11:00 14,3 C 59 % 1021,3 hPa 0,0 l/m 6,5 km/h (2 Bft) W-SW 1,00 h 0,178 mm 2,5 UV-I 418 W/m 6,3 C 13,6 C 11,2 km/h (2 Bft)
11.04.2015 12:00 16,2 C 47 % 1021,3 hPa 0,0 l/m 12,4 km/h (2 Bft) W-SW 1,00 h 0,254 mm 3,4 UV-I 551 W/m 4,7 C 13,6 C 19,7 km/h (3 Bft)
11.04.2015 13:00 16,9 C 45 % 1021,3 hPa 0,0 l/m 13,7 km/h (3 Bft) W-SW 1,00 h 0,381 mm 3,2 UV-I 541 W/m 4,7 C 14,0 C 21,4 km/h (4 Bft)
11.04.2015 14:00 16,1 C 49 % 1021,6 hPa 0,0 l/m 13,3 km/h (3 Bft) W-SW 1,00 h 0,381 mm 2,7 UV-I 445 W/m 5,3 C 13,2 C 20,1 km/h (4 Bft)
11.04.2015 15:00 15,9 C 50 % 1021,4 hPa 0,0 l/m 10,2 km/h (2 Bft) S 1,00 h 0,330 mm 2,2 UV-I 361 W/m 5,5 C 14,1 C 15,5 km/h (3 Bft)
11.04.2015 16:00 15,9 C 51 % 1021,2 hPa 0,0 l/m 9,4 km/h (2 Bft) SW 1,00 h 0,279 mm 1,3 UV-I 245 W/m 5,7 C 14,4 C 14,8 km/h (3 Bft)
11.04.2015 17:00 15,8 C 51 % 1021,4 hPa 0,0 l/m 11,0 km/h (2 Bft) W-SW 1,00 h 0,203 mm 0,9 UV-I 190 W/m 5,5 C 13,6 C 17,1 km/h (3 Bft)
11.04.2015 18:00 14,9 C 56 % 1021,6 hPa 0,0 l/m 9,4 km/h (2 Bft) W-SW 0,48 h 0,178 mm 0,0 UV-I 47 W/m 6,2 C 13,4 C 14,4 km/h (3 Bft)
11.04.2015 19:00 12,4 C 72 % 1022,3 hPa 0,0 l/m 3,7 km/h (1 Bft) S-SW 0,00 h 0,076 mm 0,0 UV-I 11 W/m 7,4 C 12,3 C 6,8 km/h (2 Bft)
11.04.2015 20:00 11,4 C 73 % 1023,0 hPa 0,0 l/m 3,0 km/h (1 Bft) SW 0,00 h 0,025 mm 0,0 UV-I 0 W/m 6,6 C 11,3 C 6,4 km/h (2 Bft)
11.04.2015 21:00 11,6 C 71 % 1024,0 hPa 0,0 l/m 7,6 km/h (2 Bft) W-SW 0,00 h 0,025 mm 0,0 UV-I 0 W/m 6,5 C 10,6 C 12,3 km/h (2 Bft)
11.04.2015 22:00 11,0 C 74 % 1024,7 hPa 0,0 l/m 5,0 km/h (1 Bft) SW 0,00 h 0,051 mm 0,0 UV-I 0 W/m 6,6 C 10,7 C 9,3 km/h (2 Bft)
11.04.2015 23:00 10,7 C 77 % 1025,3 hPa 0,0 l/m 7,4 km/h (2 Bft) W-SW 0,00 h 0,025 mm 0,0 UV-I 0 W/m 6,9 C 9,6 C 12,3 km/h (2 Bft)
12.04.2015 00:00 10,4 C 79 % 1025,7 hPa 0,0 l/m 6,1 km/h (2 Bft) W-SW 0,00 h 0,025 mm 0,0 UV-I 0 W/m 7,0 C 9,8 C 10,7 km/h (2 Bft)
12.04.2015 01:00 10,6 C 79 % 1026,4 hPa 0,0 l/m 7,5 km/h (2 Bft) W-SW 0,00 h 0,025 mm 0,0 UV-I 0 W/m 7,1 C 9,7 C 12,0 km/h (2 Bft)
12.04.2015 02:00 10,5 C 79 % 1026,8 hPa 0,0 l/m 8,1 km/h (2 Bft) W-SW 0,00 h 0,025 mm 0,0 UV-I 0 W/m 7,1 C 9,3 C 13,0 km/h (3 Bft)
12.04.2015 03:00 10,1 C 81 % 1027,0 hPa 0,0 l/m 6,9 km/h (2 Bft) W-SW 0,00 h 0,025 mm 0,0 UV-I 0 W/m 7,1 C 9,4 C 11,5 km/h (2 Bft)
12.04.2015 04:00 9,8 C 83 % 1027,4 hPa 0,0 l/m 4,8 km/h (1 Bft) W-SW 0,00 h 0,025 mm 0,0 UV-I 0 W/m 7,1 C 9,7 C 8,4 km/h (2 Bft)
12.04.2015 05:00 9,7 C 84 % 1027,6 hPa 0,0 l/m 4,1 km/h (1 Bft) W-SW 0,00 h 0,025 mm 0,0 UV-I 0 W/m 7,2 C 9,7 C 7,2 km/h (2 Bft)
12.04.2015 06:00 9,3 C 86 % 1028,0 hPa 0,0 l/m 4,0 km/h (1 Bft) NW 0,00 h 0,025 mm 0,0 UV-I 5 W/m 7,1 C 9,1 C 7,3 km/h (2 Bft)
12.04.2015 07:00 7,5 C 90 % 1029,1 hPa 0,8 l/m 3,9 km/h (1 Bft) N 0,38 h 0,000 mm 0,0 UV-I 43 W/m 6,0 C 7,4 C 7,1 km/h (2 Bft)
12.04.2015 08:00 6,8 C 88 % 1029,7 hPa 0,0 l/m 0,9 km/h (0 Bft) N 1,00 h 0,025 mm 0,7 UV-I 84 W/m 5,0 C 6,8 C 2,1 km/h (1 Bft)
12.04.2015 09:00 7,8 C 84 % 1029,9 hPa 0,0 l/m 1,1 km/h (0 Bft) N 1,00 h 0,051 mm 1,3 UV-I 304 W/m 5,2 C 7,8 C 2,6 km/h (1 Bft)
12.04.2015 10:00 9,4 C 78 % 1030,2 hPa 0,0 l/m 0,7 km/h (0 Bft) N 1,00 h 0,127 mm 1,8 UV-I 325 W/m 5,7 C 9,4 C 2,2 km/h (1 Bft)
12.04.2015 11:00 11,8 C 74 % 1030,0 hPa 0,2 l/m 2,0 km/h (1 Bft) W-NW 1,00 h 0,152 mm 2,9 UV-I 477 W/m 7,3 C 11,7 C 4,4 km/h (1 Bft)
12.04.2015 12:00 13,4 C 68 % 1029,6 hPa 0,0 l/m 6,5 km/h (2 Bft) W-SW 1,00 h 0,229 mm 4,2 UV-I 678 W/m 7,5 C 12,7 C 11,2 km/h (2 Bft)
12.04.2015 13:00 13,5 C 67 % 1029,2 hPa 0,0 l/m 7,5 km/h (2 Bft) S 1,00 h 0,356 mm 2,1 UV-I 289 W/m 7,5 C 12,5 C 12,2 km/h (2 Bft)
12.04.2015 14:00 13,8 C 66 % 1028,7 hPa 0,0 l/m 8,8 km/h (2 Bft) SW 1,00 h 0,178 mm 2,8 UV-I 441 W/m 7,5 C 12,4 C 14,3 km/h (3 Bft)
12.04.2015 15:00 14,2 C 61 % 1028,1 hPa 0,0 l/m 9,2 km/h (2 Bft) W-SW 1,00 h 0,279 mm 1,6 UV-I 232 W/m 6,9 C 12,6 C 13,9 km/h (3 Bft)
12.04.2015 16:00 15,1 C 55 % 1027,5 hPa 0,0 l/m 8,9 km/h (2 Bft) W-SW 1,00 h 0,178 mm 1,6 UV-I 310 W/m 6,2 C 13,7 C 14,0 km/h (3 Bft)
12.04.2015 17:00 15,9 C 53 % 1026,9 hPa 0,0 l/m 7,2 km/h (2 Bft) W 1,00 h 0,203 mm 1,2 UV-I 318 W/m 6,5 C 15,2 C 11,9 km/h (2 Bft)
12.04.2015 18:00 15,0 C 57 % 1026,6 hPa 0,0 l/m 5,6 km/h (2 Bft) W-SW 1,00 h 0,203 mm 0,6 UV-I 96 W/m 6,6 C 14,7 C 9,1 km/h (2 Bft)
12.04.2015 19:00 14,1 C 60 % 1026,5 hPa 0,0 l/m 4,6 km/h (1 Bft) W-SW 0,00 h 0,076 mm 0,0 UV-I 26 W/m 6,4 C 14,0 C 8,3 km/h (2 Bft)
12.04.2015 20:00 12,0 C 70 % 1026,4 hPa 0,0 l/m 0,6 km/h (0 Bft) N 0,00 h 0,051 mm 0,0 UV-I 0 W/m 6,5 C 12,0 C 1,8 km/h (1 Bft)
12.04.2015 21:00 10,5 C 74 % 1026,5 hPa 0,0 l/m 0,8 km/h (0 Bft) SO 0,00 h 0,000 mm 0,0 UV-I 0 W/m 6,1 C 10,5 C 2,4 km/h (1 Bft)
12.04.2015 22:00 9,3 C 79 % 1026,2 hPa 0,0 l/m 0,2 km/h (0 Bft) N 0,00 h 0,025 mm 0,0 UV-I 0 W/m 5,8 C 9,3 C 1,2 km/h (1 Bft)
12.04.2015 23:00 8,3 C 83 % 1026,1 hPa 0,0 l/m 0,4 km/h (0 Bft) SO 0,00 h 0,025 mm 0,0 UV-I 0 W/m 5,6 C 8,3 C 1,9 km/h (1 Bft)
Min-Datum _ 07.04.15 07.04.15 11.04.15 - 06.04.15 - - - - - 07.04.15 06.04.15 06.04.15
_ Min-Zeit 06:50 16:14 03:28 - 00:00 - - - - - 06:50 14:25 00:00
Minimum _ -3,7 C 35 % 1019,8 hPa - 0,0 km/h (0 Bft) - - - - - -4,5 C -6,7 C 0,0 km/h (0 Bft)
Max-Datum _ 10.04.15 10.04.15 07.04.15 12.04.15 06.04.15 - 12.04.15 10.04.15 08.04.15 06.04.15 10.04.15 10.04.15 06.04.15
_ Max-Zeit 15:14 07:46 09:03 07:11 14:08 - 08:16 14:00 13:04 12:59 10:56 15:14 14:08
Maximum _ 19,9 C 96 % 1037,3 hPa 0,8 l/m 32,2 km/h
N (5 Bft)
- 0,05 h 0,457 mm 5,2 UV-I 1028 W/m 8,6 C 19,9 C 45,1 km/h
N (6 Bft)
Durchschnitt _ 7,0 C 76 % 1027,8 hPa #1,2 l/m 3,4 km/h (1 Bft) N #75:25 h #15,587 mm 1,9 UV-I 286 W/m 2,6 C 6,5 C 5,8 km/h (2 Bft)